Time;durP1;ratioP1;P1;durP2;ratioP2;P2;SDS_P1;SDS_P2;PMS_P1;PMS_P2;Temp;Humidity;BMP_temperature;BMP_pressure;BME280_temperature;BME280_humidity;BME280_pressure;Samples;Min_cycle;Max_cycle;Signal;HPM_P1;HPM_P2
2023/12/16 00:00:35;;;;;;;27.85;15.93;;;;;;;;;;6078250;29;20353;-86
2023/12/16 00:03:38;;;;;;;26.33;15.20;;;;;;;;;;6077516;29;20061;-85
2023/12/16 00:06:39;;;;;;;24.92;14.23;;;;;;;;;;6079934;29;20059;-86
2023/12/16 00:09:41;;;;;;;27.60;15.32;;;;;;;;;;6082781;29;20056;-83
2023/12/16 00:12:43;;;;;;;26.80;15.63;;;;;;;;;;6080637;29;20056;-83
2023/12/16 00:15:45;;;;;;;26.83;15.60;;;;;;;;;;6086745;29;20056;-83
2023/12/16 00:18:48;;;;;;;26.90;15.68;;;;;;;;;;6081737;29;20052;-86
2023/12/16 00:21:50;;;;;;;24.98;14.23;;;;;;;;;;6087618;29;20056;-84
2023/12/16 00:24:51;;;;;;;26.63;14.63;;;;;;;;;;6083395;29;20363;-85
2023/12/16 00:27:53;;;;;;;26.67;14.65;;;;;;;;;;6086718;29;20356;-83
2023/12/16 00:30:55;;;;;;;29.15;15.38;;;;;;;;;;6084551;29;20083;-84
2023/12/16 00:33:58;;;;;;;28.67;15.00;;;;;;;;;;6081121;29;20417;-83
2023/12/16 00:37:00;;;;;;;90.45;40.08;;;;;;;;;;6084614;29;20064;-84
2023/12/16 00:40:02;;;;;;;87.85;40.95;;;;;;;;;;6091504;29;20070;-86
2023/12/16 00:43:05;;;;;;;76.50;36.30;;;;;;;;;;6084817;29;20082;-84
2023/12/16 00:46:08;;;;;;;39.03;21.48;;;;;;;;;;6081878;29;20064;-83
2023/12/16 00:49:11;;;;;;;68.03;30.27;;;;;;;;;;6086682;29;20363;-82
2023/12/16 00:52:13;;;;;;;71.28;31.58;;;;;;;;;;6087147;29;20071;-84
2023/12/16 00:55:15;;;;;;;45.55;24.52;;;;;;;;;;6083947;29;20057;-85
2023/12/16 00:58:17;;;;;;;40.85;23.05;;;;;;;;;;6085644;29;20141;-85
2023/12/16 01:01:18;;;;;;;25.83;15.13;;;;;;;;;;6083185;29;20056;-85
2023/12/16 01:04:22;;;;;;;25.27;13.20;;;;;;;;;;6081038;29;20048;-85
2023/12/16 01:07:23;;;;;;;22.02;12.82;;;;;;;;;;6081514;29;20052;-85
2023/12/16 01:10:25;;;;;;;19.75;12.57;;;;;;;;;;6084598;29;20048;-85
2023/12/16 01:13:27;;;;;;;20.02;11.98;;;;;;;;;;6085106;29;20340;-86
2023/12/16 01:16:29;;;;;;;22.55;12.98;;;;;;;;;;6083944;29;20243;-86
2023/12/16 01:19:32;;;;;;;18.98;12.35;;;;;;;;;;6086671;29;20060;-85
2023/12/16 01:22:34;;;;;;;24.83;12.95;;;;;;;;;;6085266;29;20256;-85
2023/12/16 01:25:35;;;;;;;26.20;13.32;;;;;;;;;;6083065;29;20070;-84
2023/12/16 01:28:37;;;;;;;24.08;12.10;;;;;;;;;;6086940;29;20052;-86
2023/12/16 01:31:39;;;;;;;20.45;12.18;;;;;;;;;;6086463;29;20084;-85
2023/12/16 01:34:42;;;;;;;23.85;13.55;;;;;;;;;;6088462;29;20280;-85
2023/12/16 01:37:44;;;;;;;21.00;13.55;;;;;;;;;;6087922;29;20105;-85
2023/12/16 01:40:45;;;;;;;22.88;13.35;;;;;;;;;;6082617;29;20118;-85
2023/12/16 01:43:47;;;;;;;20.27;12.40;;;;;;;;;;6083534;29;20059;-85
2023/12/16 01:46:49;;;;;;;20.77;12.95;;;;;;;;;;6081891;29;20075;-85
2023/12/16 01:49:52;;;;;;;19.65;11.75;;;;;;;;;;6086707;29;20049;-84
2023/12/16 01:52:54;;;;;;;20.95;11.98;;;;;;;;;;6082142;29;20068;-85
2023/12/16 01:55:56;;;;;;;17.77;11.13;;;;;;;;;;6084320;29;20053;-85
2023/12/16 01:58:58;;;;;;;19.88;9.63;;;;;;;;;;6083347;29;20056;-86
2023/12/16 02:02:01;;;;;;;16.60;9.77;;;;;;;;;;6082766;29;20139;-86
2023/12/16 02:05:04;;;;;;;17.63;10.52;;;;;;;;;;6079951;29;20119;-86
2023/12/16 02:08:06;;;;;;;17.98;10.75;;;;;;;;;;6084093;29;20256;-87
2023/12/16 02:11:10;;;;;;;18.63;10.40;;;;;;;;;;6086180;29;20072;-87
2023/12/16 02:14:11;;;;;;;19.35;9.77;;;;;;;;;;6086833;29;20103;-86
2023/12/16 02:17:13;;;;;;;15.75;9.23;;;;;;;;;;6085088;29;20058;-86
2023/12/16 02:20:17;;;;;;;15.88;9.55;;;;;;;;;;6084620;29;20064;-86
2023/12/16 02:23:20;;;;;;;13.65;8.88;;;;;;;;;;6085913;29;20061;-86
2023/12/16 02:26:22;;;;;;;17.92;8.43;;;;;;;;;;6083720;29;20063;-85
2023/12/16 02:29:23;;;;;;;13.15;7.90;;;;;;;;;;6083701;29;20044;-85
2023/12/16 02:32:25;;;;;;;13.70;6.93;;;;;;;;;;6080279;29;20228;-88
2023/12/16 02:35:27;;;;;;;11.20;6.55;;;;;;;;;;6083621;29;20052;-86
2023/12/16 02:38:30;;;;;;;12.00;6.78;;;;;;;;;;6078805;29;20362;-87
2023/12/16 02:41:32;;;;;;;11.98;6.03;;;;;;;;;;6079786;29;20056;-88
2023/12/16 02:44:33;;;;;;;10.13;5.13;;;;;;;;;;6082755;29;20056;-86
2023/12/16 02:47:35;;;;;;;9.32;5.85;;;;;;;;;;6082879;29;20068;-85
2023/12/16 02:50:37;;;;;;;8.57;4.95;;;;;;;;;;6079063;29;20080;-86
2023/12/16 02:53:40;;;;;;;8.52;4.75;;;;;;;;;;6084392;29;20056;-86
2023/12/16 02:56:42;;;;;;;8.18;4.43;;;;;;;;;;6084245;29;20052;-85
2023/12/16 02:59:44;;;;;;;8.60;4.80;;;;;;;;;;6082824;29;20053;-86
2023/12/16 03:02:46;;;;;;;8.77;4.18;;;;;;;;;;6083775;29;20052;-86
2023/12/16 03:05:47;;;;;;;7.68;4.88;;;;;;;;;;6082493;29;20064;-85
2023/12/16 03:08:51;;;;;;;8.32;5.03;;;;;;;;;;6084201;29;20251;-87
2023/12/16 03:11:52;;;;;;;7.70;4.70;;;;;;;;;;6083078;29;20060;-86
2023/12/16 03:14:54;;;;;;;7.20;3.75;;;;;;;;;;6082404;29;20064;-86
2023/12/16 03:17:56;;;;;;;7.25;4.22;;;;;;;;;;6085573;29;20060;-86
2023/12/16 03:20:58;;;;;;;8.30;4.80;;;;;;;;;;6080059;29;20066;-86
2023/12/16 03:24:01;;;;;;;5.90;4.07;;;;;;;;;;6079664;29;20071;-86
2023/12/16 03:27:03;;;;;;;7.70;4.47;;;;;;;;;;6077338;29;20576;-86
2023/12/16 03:30:06;;;;;;;7.85;3.92;;;;;;;;;;6078495;29;20068;-85
2023/12/16 03:33:08;;;;;;;8.77;4.72;;;;;;;;;;6077074;29;20059;-86
2023/12/16 03:36:10;;;;;;;8.32;4.65;;;;;;;;;;6082779;29;20534;-85
2023/12/16 03:39:13;;;;;;;9.00;4.40;;;;;;;;;;6080677;29;20057;-84
2023/12/16 03:42:15;;;;;;;9.13;4.88;;;;;;;;;;6082782;29;20060;-86
2023/12/16 03:45:16;;;;;;;8.95;4.90;;;;;;;;;;6080374;29;20068;-85
2023/12/16 03:48:18;;;;;;;7.45;4.60;;;;;;;;;;6085360;29;20173;-84
2023/12/16 03:51:21;;;;;;;6.18;4.30;;;;;;;;;;6083744;29;20053;-84
2023/12/16 03:54:24;;;;;;;8.50;4.20;;;;;;;;;;6082886;29;20277;-85
2023/12/16 03:57:26;;;;;;;7.85;4.05;;;;;;;;;;6085496;29;20060;-86
2023/12/16 04:00:27;;;;;;;9.23;4.65;;;;;;;;;;6086939;29;20068;-85
2023/12/16 04:03:29;;;;;;;10.32;4.32;;;;;;;;;;6090383;29;20350;-85
2023/12/16 04:06:31;;;;;;;7.30;3.90;;;;;;;;;;6082992;29;20056;-87
2023/12/16 04:09:34;;;;;;;8.25;4.63;;;;;;;;;;6085481;29;20148;-87
2023/12/16 04:12:36;;;;;;;9.77;4.70;;;;;;;;;;6085348;29;20053;-85
2023/12/16 04:15:38;;;;;;;7.78;4.03;;;;;;;;;;6083723;29;20411;-85
2023/12/16 04:18:40;;;;;;;10.35;4.28;;;;;;;;;;6084694;29;20076;-85
2023/12/16 04:21:42;;;;;;;6.05;3.67;;;;;;;;;;6086463;29;20067;-86
2023/12/16 04:24:45;;;;;;;6.78;3.80;;;;;;;;;;6083411;29;20053;-86
2023/12/16 04:27:47;;;;;;;7.83;4.20;;;;;;;;;;6084714;29;20063;-86
2023/12/16 04:30:48;;;;;;;6.97;3.50;;;;;;;;;;6081535;29;20459;-86
2023/12/16 04:33:52;;;;;;;6.47;3.90;;;;;;;;;;6084212;29;20061;-87
2023/12/16 04:36:54;;;;;;;7.93;3.47;;;;;;;;;;6082103;29;20053;-83
2023/12/16 04:39:57;;;;;;;6.65;3.63;;;;;;;;;;6085468;29;20215;-86
2023/12/16 04:42:59;;;;;;;8.27;3.70;;;;;;;;;;6084172;29;20049;-85
2023/12/16 04:46:01;;;;;;;12.27;3.83;;;;;;;;;;6081699;29;20052;-85
2023/12/16 04:49:03;;;;;;;7.10;3.60;;;;;;;;;;6084274;29;20057;-86
2023/12/16 04:52:06;;;;;;;9.35;3.85;;;;;;;;;;6090015;29;20105;-86
2023/12/16 04:55:11;;;;;;;7.38;3.78;;;;;;;;;;6084750;29;20260;-86
2023/12/16 04:58:13;;;;;;;8.48;4.63;;;;;;;;;;6082183;29;20056;-84
2023/12/16 05:01:15;;;;;;;7.00;3.72;;;;;;;;;;6087313;29;20052;-86
2023/12/16 05:04:17;;;;;;;7.05;3.47;;;;;;;;;;6079896;29;20052;-87
2023/12/16 05:07:18;;;;;;;8.68;4.13;;;;;;;;;;6082356;29;20274;-86
2023/12/16 05:10:22;;;;;;;7.70;3.58;;;;;;;;;;6081606;29;20398;-87
2023/12/16 05:13:23;;;;;;;5.70;3.13;;;;;;;;;;6079467;29;20063;-91
2023/12/16 05:16:26;;;;;;;7.93;3.55;;;;;;;;;;6090922;29;20052;-87
2023/12/16 05:19:27;;;;;;;6.13;3.63;;;;;;;;;;6084388;29;20050;-87
2023/12/16 05:22:33;;;;;;;11.13;4.15;;;;;;;;;;6084989;29;20079;-87
2023/12/16 05:25:37;;;;;;;5.80;3.38;;;;;;;;;;6088380;29;20379;-88
2023/12/16 05:28:38;;;;;;;6.82;3.67;;;;;;;;;;6083034;29;20075;-87
2023/12/16 05:31:40;;;;;;;8.10;3.38;;;;;;;;;;6085696;29;20052;-87
2023/12/16 05:34:42;;;;;;;8.25;3.45;;;;;;;;;;6085974;29;20048;-85
2023/12/16 05:37:44;;;;;;;6.95;3.20;;;;;;;;;;6085204;29;20057;-85
2023/12/16 05:40:47;;;;;;;10.48;3.80;;;;;;;;;;6084233;29;20054;-85
2023/12/16 05:43:49;;;;;;;9.13;4.35;;;;;;;;;;6086216;29;20842;-86
2023/12/16 05:46:51;;;;;;;9.25;4.05;;;;;;;;;;6077715;29;20348;-88
2023/12/16 05:49:52;;;;;;;6.95;4.18;;;;;;;;;;6080522;29;20135;-85
2023/12/16 05:52:54;;;;;;;6.25;3.78;;;;;;;;;;6081925;29;20108;-87
2023/12/16 05:55:57;;;;;;;7.28;4.05;;;;;;;;;;6079752;29;20055;-87
2023/12/16 05:58:59;;;;;;;9.55;4.25;;;;;;;;;;6078695;29;20173;-87
2023/12/16 06:02:01;;;;;;;8.65;3.95;;;;;;;;;;6081239;29;20055;-86
2023/12/16 06:05:03;;;;;;;11.18;4.35;;;;;;;;;;6070814;29;20048;-86
2023/12/16 06:08:05;;;;;;;9.60;4.18;;;;;;;;;;6079643;29;20064;-85
2023/12/16 06:11:11;;;;;;;8.32;4.32;;;;;;;;;;6079657;29;20052;-87
2023/12/16 06:14:13;;;;;;;10.43;3.92;;;;;;;;;;6090931;29;20103;-84
2023/12/16 06:17:15;;;;;;;7.43;3.83;;;;;;;;;;6081793;29;20056;-84
2023/12/16 06:20:17;;;;;;;13.68;4.32;;;;;;;;;;6088073;29;20104;-86
2023/12/16 06:23:19;;;;;;;8.88;4.13;;;;;;;;;;6089324;29;20067;-87
2023/12/16 06:26:22;;;;;;;13.05;4.63;;;;;;;;;;6082894;29;20245;-87
2023/12/16 06:29:24;;;;;;;18.88;4.63;;;;;;;;;;6083852;29;20053;-87
2023/12/16 06:32:25;;;;;;;9.65;3.90;;;;;;;;;;6084279;29;20065;-87
2023/12/16 06:35:27;;;;;;;6.97;3.40;;;;;;;;;;6083715;29;20056;-86
2023/12/16 06:38:30;;;;;;;8.35;4.03;;;;;;;;;;6081351;29;20060;-87
2023/12/16 06:41:33;;;;;;;10.32;3.95;;;;;;;;;;6081916;29;20057;-86
2023/12/16 06:44:36;;;;;;;8.43;4.18;;;;;;;;;;6077924;29;20572;-85
2023/12/16 06:47:40;;;;;;;7.38;3.83;;;;;;;;;;6072822;29;20156;-86
2023/12/16 06:50:42;;;;;;;7.55;3.63;;;;;;;;;;6079501;29;20056;-86
2023/12/16 06:53:44;;;;;;;11.75;4.10;;;;;;;;;;6081436;29;20066;-85
2023/12/16 06:56:48;;;;;;;8.85;4.05;;;;;;;;;;6081861;29;20048;-85
2023/12/16 06:59:50;;;;;;;8.27;4.13;;;;;;;;;;6080188;29;20080;-85
2023/12/16 07:02:51;;;;;;;9.93;4.10;;;;;;;;;;6081486;29;20061;-85
2023/12/16 07:05:53;;;;;;;7.50;4.15;;;;;;;;;;6083362;29;20361;-85
2023/12/16 07:08:55;;;;;;;7.72;4.28;;;;;;;;;;6082158;29;20057;-85
2023/12/16 07:11:58;;;;;;;8.70;4.10;;;;;;;;;;6078718;29;20049;-86
2023/12/16 07:15:00;;;;;;;15.25;4.90;;;;;;;;;;6083138;29;20063;-86
2023/12/16 07:18:02;;;;;;;8.93;4.70;;;;;;;;;;6079272;29;20059;-86
2023/12/16 07:21:06;;;;;;;6.97;4.22;;;;;;;;;;6087489;29;20127;-85
2023/12/16 07:24:08;;;;;;;9.38;4.53;;;;;;;;;;6087493;29;20060;-86
2023/12/16 07:27:11;;;;;;;9.60;4.32;;;;;;;;;;6084430;29;20052;-86
2023/12/16 07:30:13;;;;;;;8.77;4.20;;;;;;;;;;6087837;29;20056;-86
2023/12/16 07:33:15;;;;;;;7.85;4.82;;;;;;;;;;6084324;29;20051;-85
2023/12/16 07:36:17;;;;;;;8.23;4.40;;;;;;;;;;6082852;29;20060;-86
2023/12/16 07:39:19;;;;;;;9.68;4.63;;;;;;;;;;6080830;29;20059;-86
2023/12/16 07:42:22;;;;;;;11.60;4.25;;;;;;;;;;6082574;29;20064;-86
2023/12/16 07:45:24;;;;;;;10.00;4.32;;;;;;;;;;6081934;29;20065;-86
2023/12/16 07:48:25;;;;;;;11.05;4.00;;;;;;;;;;6083943;29;20053;-85
2023/12/16 07:51:27;;;;;;;9.93;3.83;;;;;;;;;;6083372;29;20061;-86
2023/12/16 07:54:29;;;;;;;9.23;4.95;;;;;;;;;;6088995;29;20052;-86
2023/12/16 07:57:32;;;;;;;7.50;4.50;;;;;;;;;;6084339;29;20048;-84
2023/12/16 08:00:34;;;;;;;9.00;4.30;;;;;;;;;;6084030;29;20205;-85
2023/12/16 08:03:35;;;;;;;11.70;4.25;;;;;;;;;;6086439;29;20048;-87
2023/12/16 08:06:37;;;;;;;9.57;4.18;;;;;;;;;;6086552;29;20408;-86
2023/12/16 08:09:39;;;;;;;7.53;3.40;;;;;;;;;;6089793;29;20048;-86
2023/12/16 08:12:42;;;;;;;6.45;3.47;;;;;;;;;;6088434;29;20083;-84
2023/12/16 08:15:44;;;;;;;9.50;3.88;;;;;;;;;;6092884;29;20111;-85
2023/12/16 08:18:46;;;;;;;8.48;4.22;;;;;;;;;;6089742;29;20052;-85
2023/12/16 08:21:48;;;;;;;11.05;5.57;;;;;;;;;;6091434;29;20100;-86
2023/12/16 08:24:50;;;;;;;8.73;4.88;;;;;;;;;;6084756;29;20280;-85
2023/12/16 08:27:53;;;;;;;11.30;4.90;;;;;;;;;;6085021;29;20053;-86
2023/12/16 08:30:55;;;;;;;9.15;4.75;;;;;;;;;;6083723;29;20056;-87
2023/12/16 08:33:57;;;;;;;7.93;4.05;;;;;;;;;;6086635;29;20045;-86
2023/12/16 08:36:58;;;;;;;9.40;4.40;;;;;;;;;;6086909;29;20256;-87
2023/12/16 08:40:00;;;;;;;10.02;4.68;;;;;;;;;;6089269;29;20355;-87
2023/12/16 08:43:03;;;;;;;8.70;4.60;;;;;;;;;;6093714;29;20052;-87
2023/12/16 08:46:06;;;;;;;9.07;4.17;;;;;;;;;;6085346;29;20056;-86
2023/12/16 08:49:08;;;;;;;11.10;4.05;;;;;;;;;;6082477;29;20065;-87
2023/12/16 08:52:09;;;;;;;8.73;4.40;;;;;;;;;;6086861;29;20048;-85
2023/12/16 08:55:12;;;;;;;7.03;4.38;;;;;;;;;;6082748;29;20075;-86
2023/12/16 08:58:15;;;;;;;8.80;4.20;;;;;;;;;;6083834;29;20129;-86
2023/12/16 09:01:17;;;;;;;8.90;4.15;;;;;;;;;;6085250;29;20056;-85
2023/12/16 09:04:19;;;;;;;10.65;4.20;;;;;;;;;;6085732;29;20059;-85
2023/12/16 09:07:20;;;;;;;8.90;4.40;;;;;;;;;;6087451;29;20057;-85
2023/12/16 09:10:22;;;;;;;8.70;4.15;;;;;;;;;;6080796;29;20243;-87
2023/12/16 09:13:26;;;;;;;6.75;3.75;;;;;;;;;;6080909;29;20061;-87
2023/12/16 09:16:28;;;;;;;7.30;3.47;;;;;;;;;;6079698;29;20177;-87
2023/12/16 09:19:29;;;;;;;5.60;3.33;;;;;;;;;;6082126;29;20897;-87
2023/12/16 09:22:31;;;;;;;6.97;3.38;;;;;;;;;;6080438;29;20067;-86
2023/12/16 09:25:33;;;;;;;7.50;4.03;;;;;;;;;;6083628;29;20076;-84
2023/12/16 09:28:36;;;;;;;10.23;4.10;;;;;;;;;;6090447;29;20103;-84
2023/12/16 09:31:38;;;;;;;9.27;4.20;;;;;;;;;;6086753;29;20058;-85
2023/12/16 09:34:41;;;;;;;12.35;4.57;;;;;;;;;;6083774;29;20100;-85
2023/12/16 09:37:43;;;;;;;6.50;3.67;;;;;;;;;;6085524;29;20060;-84
2023/12/16 09:40:45;;;;;;;9.10;4.03;;;;;;;;;;6086320;29;20067;-84
2023/12/16 09:43:51;;;;;;;5.88;4.22;;;;;;;;;;6075026;29;20092;-86
2023/12/16 09:46:56;;;;;;;9.10;4.18;;;;;;;;;;6083732;29;20048;-86
2023/12/16 09:49:59;;;;;;;10.15;3.72;;;;;;;;;;6089381;29;20059;-86
2023/12/16 09:53:01;;;;;;;9.20;4.30;;;;;;;;;;6086917;29;20063;-85
2023/12/16 09:56:02;;;;;;;9.70;4.18;;;;;;;;;;6080686;29;20057;-85
2023/12/16 09:59:06;;;;;;;7.63;4.15;;;;;;;;;;6083787;29;20079;-85
2023/12/16 10:02:19;;;;;;;7.90;4.65;;;;;;;;;;6081271;29;20108;-85
2023/12/16 10:05:25;;;;;;;6.70;4.10;;;;;;;;;;6077130;29;20052;-86
2023/12/16 10:08:27;;;;;;;8.88;3.97;;;;;;;;;;6078291;29;20052;-85
2023/12/16 10:11:29;;;;;;;6.30;3.95;;;;;;;;;;6082785;29;20048;-86
2023/12/16 10:14:45;;;;;;;8.18;3.75;;;;;;;;;;6083644;29;20060;-85
2023/12/16 10:17:47;;;;;;;6.97;3.60;;;;;;;;;;6083178;29;20052;-85
2023/12/16 10:20:49;;;;;;;8.63;3.80;;;;;;;;;;6080309;29;20613;-84
2023/12/16 10:23:51;;;;;;;9.75;3.85;;;;;;;;;;6083038;29;20067;-84
2023/12/16 10:26:53;;;;;;;5.53;3.17;;;;;;;;;;6078030;29;20080;-85
2023/12/16 10:29:56;;;;;;;7.90;4.15;;;;;;;;;;6079860;29;20080;-86
2023/12/16 10:33:02;;;;;;;7.27;4.17;;;;;;;;;;6081832;29;20057;-86
2023/12/16 10:36:04;;;;;;;13.57;4.45;;;;;;;;;;6087554;29;20060;-86
2023/12/16 10:39:05;;;;;;;10.05;3.80;;;;;;;;;;6082391;29;20072;-85
2023/12/16 10:42:07;;;;;;;7.78;3.78;;;;;;;;;;6085076;29;20052;-85
2023/12/16 10:45:11;;;;;;;4.78;3.00;;;;;;;;;;6082787;29;20076;-84
2023/12/16 10:48:13;;;;;;;;;;;;;;;;;;6081172;29;20056;-84
2023/12/16 10:51:16;;;;;;;3.88;2.75;;;;;;;;;;6080877;29;19927;-84
2023/12/16 10:54:22;;;;;;;6.60;3.17;;;;;;;;;;6079578;29;20099;-85
2023/12/16 10:57:29;;;;;;;4.13;2.38;;;;;;;;;;6078093;29;20064;-84
2023/12/16 11:00:34;;;;;;;4.07;1.88;;;;;;;;;;6080587;29;20071;-85
2023/12/16 11:03:38;;;;;;;4.30;2.35;;;;;;;;;;6082355;29;20147;-86
2023/12/16 11:06:44;;;;;;;4.30;2.58;;;;;;;;;;6077617;29;20344;-82
2023/12/16 11:09:46;;;;;;;3.67;2.28;;;;;;;;;;6081639;29;20277;-85
2023/12/16 11:12:48;;;;;;;3.53;2.15;;;;;;;;;;6079245;29;20056;-86
2023/12/16 11:15:53;;;;;;;7.35;2.30;;;;;;;;;;6079318;29;20053;-85
2023/12/16 11:18:56;;;;;;;4.43;2.15;;;;;;;;;;6084791;29;20056;-86
2023/12/16 11:21:58;;;;;;;5.93;2.47;;;;;;;;;;6085609;29;20229;-86
2023/12/16 11:25:01;;;;;;;5.63;2.67;;;;;;;;;;6078333;29;20214;-87
2023/12/16 11:28:03;;;;;;;5.00;2.10;;;;;;;;;;6080336;29;20360;-86
2023/12/16 11:31:07;;;;;;;3.45;1.80;;;;;;;;;;6082143;29;20071;-85
2023/12/16 11:34:08;;;;;;;7.22;1.83;;;;;;;;;;6083156;29;20060;-85
2023/12/16 11:37:10;;;;;;;6.07;2.50;;;;;;;;;;6083218;29;20060;-87
2023/12/16 11:40:41;;;;;;;4.55;2.47;;;;;;;;;;6079380;29;20068;-86
2023/12/16 11:43:50;;;;;;;5.95;3.53;;;;;;;;;;6080331;29;20044;-84
2023/12/16 11:46:53;;;;;;;7.07;2.70;;;;;;;;;;6074846;29;20053;-85
2023/12/16 11:49:56;;;;;;;7.22;3.13;;;;;;;;;;6082231;29;20059;-84
2023/12/16 11:52:58;;;;;;;7.82;3.90;;;;;;;;;;6078584;29;20256;-84
2023/12/16 11:56:00;;;;;;;9.63;5.50;;;;;;;;;;6081475;29;20051;-85
2023/12/16 11:59:02;;;;;;;6.43;4.13;;;;;;;;;;6080171;29;20052;-85
2023/12/16 12:02:06;;;;;;;7.25;4.85;;;;;;;;;;6082928;29;20060;-85
2023/12/16 12:05:11;;;;;;;8.70;4.10;;;;;;;;;;6082625;29;20061;-85
2023/12/16 12:08:13;;;;;;;6.78;3.83;;;;;;;;;;6085392;29;20317;-84
2023/12/16 12:11:16;;;;;;;5.57;3.92;;;;;;;;;;6090448;29;20375;-85
2023/12/16 12:14:18;;;;;;;5.65;3.80;;;;;;;;;;6085774;29;20334;-83
2023/12/16 12:17:22;;;;;;;6.97;3.85;;;;;;;;;;6086973;29;20060;-84
2023/12/16 12:20:24;;;;;;;9.00;3.95;;;;;;;;;;6086290;29;20079;-84
2023/12/16 12:23:25;;;;;;;7.68;4.45;;;;;;;;;;6087051;29;20053;-84
2023/12/16 12:26:27;;;;;;;8.98;4.50;;;;;;;;;;6084414;29;20059;-84
2023/12/16 12:29:53;;;;;;;8.20;3.97;;;;;;;;;;6084076;29;20248;-84
2023/12/16 12:32:57;;;;;;;5.25;4.10;;;;;;;;;;6080027;29;20240;-84
2023/12/16 12:35:58;;;;;;;10.30;5.30;;;;;;;;;;6082467;29;20469;-83
2023/12/16 12:39:00;;;;;;;12.23;5.63;;;;;;;;;;6083004;29;20055;-84
2023/12/16 12:42:02;;;;;;;9.82;5.13;;;;;;;;;;6085367;29;20119;-83
2023/12/16 12:45:05;;;;;;;5.20;4.30;;;;;;;;;;6083053;29;20059;-84
2023/12/16 12:48:13;;;;;;;8.20;4.35;;;;;;;;;;6084453;29;20072;-84
2023/12/16 12:51:14;;;;;;;9.65;4.80;;;;;;;;;;6083751;29;20064;-85
2023/12/16 12:54:16;;;;;;;8.43;4.72;;;;;;;;;;6083627;29;20071;-85
2023/12/16 12:57:20;;;;;;;7.30;4.07;;;;;;;;;;6082792;29;20065;-84
2023/12/16 13:00:21;;;;;;;8.63;4.90;;;;;;;;;;6085184;29;20056;-83
2023/12/16 13:03:24;;;;;;;4.93;3.47;;;;;;;;;;6085151;29;20078;-84
2023/12/16 13:06:26;;;;;;;6.17;3.83;;;;;;;;;;6087196;29;20056;-78
2023/12/16 13:09:29;;;;;;;6.32;3.80;;;;;;;;;;6082336;29;20272;-79
2023/12/16 13:12:31;;;;;;;5.18;3.95;;;;;;;;;;6082373;29;20048;-80
2023/12/16 13:15:33;;;;;;;5.40;3.50;;;;;;;;;;6083612;29;20052;-80
2023/12/16 13:18:41;;;;;;;8.52;4.30;;;;;;;;;;6079826;29;20063;-79
2023/12/16 13:21:42;;;;;;;6.82;4.50;;;;;;;;;;6079890;29;20061;-78
2023/12/16 13:24:44;;;;;;;7.47;4.32;;;;;;;;;;6079960;29;20214;-78
2023/12/16 13:27:46;;;;;;;7.05;4.50;;;;;;;;;;6080945;29;20064;-80
2023/12/16 13:30:50;;;;;;;5.22;3.88;;;;;;;;;;6081564;29;20221;-80
2023/12/16 13:33:53;;;;;;;7.65;4.13;;;;;;;;;;6083258;29;20363;-79
2023/12/16 13:36:56;;;;;;;6.90;4.27;;;;;;;;;;6083336;29;20052;-79
2023/12/16 13:39:59;;;;;;;6.65;4.30;;;;;;;;;;6086246;29;20301;-79
2023/12/16 13:43:00;;;;;;;7.45;4.30;;;;;;;;;;6080862;29;20060;-79
2023/12/16 13:46:02;;;;;;;6.82;4.55;;;;;;;;;;6083743;29;20051;-79
2023/12/16 13:49:07;;;;;;;7.65;4.40;;;;;;;;;;6082820;29;20068;-80
2023/12/16 13:52:09;;;;;;;7.35;4.15;;;;;;;;;;6087220;29;20088;-80
2023/12/16 13:55:10;;;;;;;6.38;4.78;;;;;;;;;;6084818;29;20120;-79
2023/12/16 13:58:12;;;;;;;8.35;5.07;;;;;;;;;;6081093;29;20052;-79
2023/12/16 14:01:14;;;;;;;6.85;4.70;;;;;;;;;;6080134;29;20251;-81
2023/12/16 14:04:17;;;;;;;10.13;5.20;;;;;;;;;;6082055;29;20049;-81
2023/12/16 14:07:18;;;;;;;7.57;5.50;;;;;;;;;;6082606;29;20048;-80
2023/12/16 14:10:20;;;;;;;8.80;5.85;;;;;;;;;;6082060;29;20049;-80
2023/12/16 14:13:22;;;;;;;8.85;6.05;;;;;;;;;;6077964;29;20300;-80
2023/12/16 14:16:24;;;;;;;10.70;5.85;;;;;;;;;;6084899;29;20052;-83
2023/12/16 14:19:28;;;;;;;7.45;5.72;;;;;;;;;;6083722;29;20068;-84
2023/12/16 14:22:29;;;;;;;8.30;5.37;;;;;;;;;;6082320;29;20257;-83
2023/12/16 14:25:31;;;;;;;10.65;5.15;;;;;;;;;;6084761;29;20067;-84
2023/12/16 14:28:33;;;;;;;7.72;5.93;;;;;;;;;;6082257;29;20067;-83
2023/12/16 14:31:34;;;;;;;9.07;5.50;;;;;;;;;;6086308;29;20060;-83
2023/12/16 14:34:38;;;;;;;8.32;5.30;;;;;;;;;;6081490;29;20060;-83
2023/12/16 14:37:39;;;;;;;9.48;5.65;;;;;;;;;;6085272;29;20056;-84
2023/12/16 14:40:41;;;;;;;9.88;5.05;;;;;;;;;;6083081;29;20048;-82
2023/12/16 14:43:43;;;;;;;7.57;5.20;;;;;;;;;;6085670;29;20148;-83
2023/12/16 14:46:45;;;;;;;7.68;5.80;;;;;;;;;;6080421;29;20138;-82
2023/12/16 14:49:48;;;;;;;9.32;6.30;;;;;;;;;;6079015;29;20351;-84
2023/12/16 14:52:50;;;;;;;7.30;5.47;;;;;;;;;;6080623;29;20444;-84
2023/12/16 14:55:54;;;;;;;8.82;6.03;;;;;;;;;;6080737;29;20261;-83
2023/12/16 14:58:55;;;;;;;;;;;;;;;;;;6079400;29;20146;-83
2023/12/16 15:01:57;;;;;;;8.32;5.07;;;;;;;;;;6077413;29;19938;-85
2023/12/16 15:05:01;;;;;;;99.72;45.15;;;;;;;;;;6081518;29;20367;-85
2023/12/16 15:08:03;;;;;;;;;;;;;;;;;;6079777;29;20116;-82
2023/12/16 15:11:05;;;;;;;67.32;31.30;;;;;;;;;;6086403;29;19931;-86
2023/12/16 15:14:06;;;;;;;12.13;6.90;;;;;;;;;;6082798;29;20095;-85
2023/12/16 15:17:08;;;;;;;7.47;5.68;;;;;;;;;;6086869;29;20048;-82
2023/12/16 15:20:12;;;;;;;7.78;5.88;;;;;;;;;;6084757;29;20105;-81
2023/12/16 15:23:13;;;;;;;8.55;5.80;;;;;;;;;;6085876;29;20059;-84
2023/12/16 15:26:15;;;;;;;12.05;5.95;;;;;;;;;;6078845;29;20092;-78
2023/12/16 15:29:17;;;;;;;9.07;5.78;;;;;;;;;;6075951;29;20067;-79
2023/12/16 15:32:18;;;;;;;10.85;6.00;;;;;;;;;;6077862;29;20067;-78
2023/12/16 15:35:22;;;;;;;9.65;5.43;;;;;;;;;;6081924;29;20360;-78
2023/12/16 15:38:24;;;;;;;8.77;5.22;;;;;;;;;;6080488;29;20051;-78
2023/12/16 15:41:26;;;;;;;9.48;6.13;;;;;;;;;;6082779;29;20478;-78
2023/12/16 15:44:27;;;;;;;9.60;6.13;;;;;;;;;;6085520;29;20056;-78
2023/12/16 15:47:29;;;;;;;8.43;5.90;;;;;;;;;;6084683;29;20060;-78
2023/12/16 15:50:32;;;;;;;9.05;5.13;;;;;;;;;;6082757;29;20061;-76
2023/12/16 15:53:34;;;;;;;8.25;5.40;;;;;;;;;;6083421;29;20128;-78
2023/12/16 15:56:40;;;;;;;8.25;5.47;;;;;;;;;;6083554;29;20400;-78
2023/12/16 15:59:42;;;;;;;9.25;5.63;;;;;;;;;;6087971;29;20079;-76
2023/12/16 16:02:44;;;;;;;8.52;5.35;;;;;;;;;;6085825;29;20256;-76
2023/12/16 16:05:47;;;;;;;12.15;5.93;;;;;;;;;;6083284;29;20090;-76
2023/12/16 16:08:49;;;;;;;11.77;5.75;;;;;;;;;;6083078;29;20590;-76
2023/12/16 16:11:51;;;;;;;6.70;4.75;;;;;;;;;;6083429;29;20059;-76
2023/12/16 16:14:52;;;;;;;7.35;4.63;;;;;;;;;;6087436;29;20143;-76
2023/12/16 16:17:54;;;;;;;9.27;5.22;;;;;;;;;;6078835;29;20064;-76
2023/12/16 16:20:57;;;;;;;9.25;4.72;;;;;;;;;;6083516;29;20053;-77
2023/12/16 16:24:00;;;;;;;6.95;4.03;;;;;;;;;;6086590;29;20056;-76
2023/12/16 16:27:02;;;;;;;7.40;4.43;;;;;;;;;;6081243;29;20056;-79
2023/12/16 16:30:04;;;;;;;12.60;4.47;;;;;;;;;;6088418;29;20265;-78
2023/12/16 16:33:06;;;;;;;7.43;4.45;;;;;;;;;;6086840;29;20063;-78
2023/12/16 16:36:10;;;;;;;9.70;4.45;;;;;;;;;;6085694;29;20060;-85
2023/12/16 16:39:12;;;;;;;5.97;4.63;;;;;;;;;;6081684;29;20287;-84
2023/12/16 16:42:13;;;;;;;10.57;4.90;;;;;;;;;;6081185;29;20052;-85
2023/12/16 16:45:16;;;;;;;10.98;4.65;;;;;;;;;;6083357;29;20064;-84
2023/12/16 16:48:18;;;;;;;12.18;5.35;;;;;;;;;;6083960;29;20067;-87
2023/12/16 16:51:21;;;;;;;8.43;4.20;;;;;;;;;;6081405;29;20113;-85
2023/12/16 16:54:23;;;;;;;9.25;3.92;;;;;;;;;;6089425;29;20075;-84
2023/12/16 16:57:26;;;;;;;5.63;3.95;;;;;;;;;;6086982;29;20057;-84
2023/12/16 17:00:28;;;;;;;7.18;4.18;;;;;;;;;;6079470;29;20060;-85
2023/12/16 17:03:34;;;;;;;7.53;4.28;;;;;;;;;;6087042;29;20395;-85
2023/12/16 17:06:37;;;;;;;8.68;4.93;;;;;;;;;;6084448;29;20049;-84
2023/12/16 17:09:39;;;;;;;11.10;4.82;;;;;;;;;;6082550;29;20257;-86
2023/12/16 17:12:41;;;;;;;7.28;4.85;;;;;;;;;;6086650;29;20637;-84
2023/12/16 17:15:43;;;;;;;12.15;5.97;;;;;;;;;;6083669;29;20049;-85
2023/12/16 17:18:45;;;;;;;11.00;5.40;;;;;;;;;;6079798;29;20376;-83
2023/12/16 17:21:48;;;;;;;10.38;6.15;;;;;;;;;;6083113;29;20052;-85
2023/12/16 17:24:49;;;;;;;15.97;6.13;;;;;;;;;;6080914;29;20056;-84
2023/12/16 17:27:51;;;;;;;9.02;4.97;;;;;;;;;;6081518;29;20253;-84
2023/12/16 17:30:53;;;;;;;12.25;4.53;;;;;;;;;;6078355;29;20076;-84
2023/12/16 17:33:55;;;;;;;9.77;4.53;;;;;;;;;;6079845;29;20073;-84
2023/12/16 17:36:59;;;;;;;7.80;3.92;;;;;;;;;;6081251;29;20321;-85
2023/12/16 17:40:01;;;;;;;5.65;3.55;;;;;;;;;;6087212;29;20115;-84
2023/12/16 17:43:02;;;;;;;6.38;4.20;;;;;;;;;;6081127;29;20056;-85
2023/12/16 17:46:04;;;;;;;8.52;4.53;;;;;;;;;;6083675;29;20052;-78
2023/12/16 17:49:06;;;;;;;8.45;4.53;;;;;;;;;;6084897;29;20352;-78
2023/12/16 17:52:10;;;;;;;8.95;4.60;;;;;;;;;;6087462;29;20467;-78
2023/12/16 17:55:12;;;;;;;11.15;5.32;;;;;;;;;;6078730;29;20329;-77
2023/12/16 17:58:13;;;;;;;14.07;5.68;;;;;;;;;;6081198;29;20059;-77
2023/12/16 18:01:15;;;;;;;9.90;5.65;;;;;;;;;;6081879;29;20060;-78
2023/12/16 18:04:17;;;;;;;9.60;4.93;;;;;;;;;;6084481;29;20045;-78
2023/12/16 18:07:21;;;;;;;11.82;5.18;;;;;;;;;;6085343;29;20136;-78